Aérodrome :
LOGIN :

S'inscrire | Disclaimer

   EN    FR    IT 

 










Légende :    VFR   VFR Marginal   IFR   IFR Intensif   IFR Très Intensif
Visi : 
Plafond : 
>= 8 km
>= 3000ft
5 à 8 km
1000 à 3000 ft
1500m à 5 km
500 à 1000 ft
800 à 1500m
200 à 500 ft
< 800m
< 200 ft
Symboles :   Orages  Brouillard  Fortes neiges  Fortes précipitations  Vent > 20 kt
SIGMETs :   Divers  Orages  Givrage  Turbulence  Onde Orograph.  Cendres Volcan.







- Altitude de l'aérodrome : 144 ft
- Code IATA : PGF
- Voir les cartes d'approche


LFMP - Perpignan

DERNIER METAR :
  • 251100Z AUTO 32010KT 290V350 9999 FEW076 14/M01 Q1009 NOSIG

METARs EXPIRÉS :
  • 251030Z AUTO 32010KT 9999 SCT074 SCT094 BKN110 13/M00 Q1009 NOSIG
  • 251000Z AUTO 30006KT 220V020 9999 BKN070 12/00 Q1009 NOSIG
  • 250930Z AUTO 31008KT 240V340 9999 BKN072 BKN120 11/00 Q1009 NOSIG
  • 250900Z AUTO 31008KT 200V010 9999 SCT068 11/M00 Q1009 NOSIG
  • 250830Z AUTO 10004KT 9999 BKN070 10/00 Q1009 BECMG 34010KT

TAF TAF LFMP
Valide du 25 à 09h jusqu'au 26 à 09h UTC


250800Z 2509/2609 34010KT 9999 BKN070
BECMG 2518/2520 31015G25KT CAVOK
TEMPO 2521/2603 32020G35KT
ATIS : +33 4 68 63 75 12
Pas de NOTAMs connus pour ce terrain.



MET'MAP, la Météo Aéronautique d'un coup d'oeil ! - Copyright ORBIFLY Décembre 2007 - Disclaimer

ORBIFLY MET'MAP TEAM :

Programmation & Développement : Alexandra Zaïnal
Conception & Développement : Baudouin d'Aumeries
Co-Programmation & Développement : Marc-Olivier Méhu
Soutien technique & logistique : Manuel Goepfert

Contact : metmap@orbifly.com




SOURCES & CREDITS :

   NOAA